sensor_id;sensor_type;location;lat;lon;timestamp;temperature;humidity
29725;DHT22;16636;48.394;15.468;2022-09-12T00:01:57;15.50;99.90
29725;DHT22;16636;48.394;15.468;2022-09-12T00:04:51;15.40;99.90
29725;DHT22;16636;48.394;15.468;2022-09-12T00:07:17;15.40;99.90
29725;DHT22;16636;48.394;15.468;2022-09-12T00:09:43;15.40;99.90
29725;DHT22;16636;48.394;15.468;2022-09-12T00:12:09;15.30;99.90
29725;DHT22;16636;48.394;15.468;2022-09-12T00:14:35;15.20;99.90
29725;DHT22;16636;48.394;15.468;2022-09-12T00:17:01;15.20;99.90
29725;DHT22;16636;48.394;15.468;2022-09-12T00:19:28;15.20;99.90
29725;DHT22;16636;48.394;15.468;2022-09-12T00:21:54;15.20;99.90
29725;DHT22;16636;48.394;15.468;2022-09-12T00:24:20;15.20;99.90
29725;DHT22;16636;48.394;15.468;2022-09-12T00:26:46;15.20;99.90
29725;DHT22;16636;48.394;15.468;2022-09-12T00:29:20;15.10;99.90
29725;DHT22;16636;48.394;15.468;2022-09-12T00:31:46;15.10;99.90
29725;DHT22;16636;48.394;15.468;2022-09-12T00:34:13;15.10;99.90
29725;DHT22;16636;48.394;15.468;2022-09-12T00:36:39;15.10;99.90
29725;DHT22;16636;48.394;15.468;2022-09-12T00:39:06;15.10;99.90
29725;DHT22;16636;48.394;15.468;2022-09-12T00:41:38;15.00;99.90
29725;DHT22;16636;48.394;15.468;2022-09-12T00:47:14;15.10;99.90
29725;DHT22;16636;48.394;15.468;2022-09-12T00:49:54;15.10;99.90
29725;DHT22;16636;48.394;15.468;2022-09-12T00:57:30;15.00;99.90
29725;DHT22;16636;48.394;15.468;2022-09-12T01:00:06;15.10;99.90
29725;DHT22;16636;48.394;15.468;2022-09-12T01:02:44;15.10;99.90
29725;DHT22;16636;48.394;15.468;2022-09-12T01:05:11;15.00;99.90
29725;DHT22;16636;48.394;15.468;2022-09-12T01:07:39;15.00;99.90
29725;DHT22;16636;48.394;15.468;2022-09-12T01:10:07;15.00;99.90
29725;DHT22;16636;48.394;15.468;2022-09-12T01:12:37;15.00;99.90
29725;DHT22;16636;48.394;15.468;2022-09-12T01:15:04;15.00;99.90
29725;DHT22;16636;48.394;15.468;2022-09-12T01:31:32;15.00;99.90
29725;DHT22;16636;48.394;15.468;2022-09-12T01:34:24;15.00;99.90
29725;DHT22;16636;48.394;15.468;2022-09-12T01:39:39;15.00;99.90
29725;DHT22;16636;48.394;15.468;2022-09-12T01:44:49;15.00;99.90
29725;DHT22;16636;48.394;15.468;2022-09-12T01:47:41;14.90;99.90
29725;DHT22;16636;48.394;15.468;2022-09-12T01:50:20;14.90;99.90
29725;DHT22;16636;48.394;15.468;2022-09-12T01:55:54;14.80;99.90
29725;DHT22;16636;48.394;15.468;2022-09-12T01:58:26;14.80;99.90
29725;DHT22;16636;48.394;15.468;2022-09-12T02:01:00;14.80;99.90
29725;DHT22;16636;48.394;15.468;2022-09-12T02:03:31;14.80;99.90
29725;DHT22;16636;48.394;15.468;2022-09-12T02:06:05;14.80;99.90
29725;DHT22;16636;48.394;15.468;2022-09-12T02:08:47;14.70;99.90
29725;DHT22;16636;48.394;15.468;2022-09-12T02:11:13;14.70;99.90
29725;DHT22;16636;48.394;15.468;2022-09-12T02:16:34;14.60;99.90
29725;DHT22;16636;48.394;15.468;2022-09-12T02:19:33;14.70;99.90
29725;DHT22;16636;48.394;15.468;2022-09-12T02:22:01;14.70;99.90
29725;DHT22;16636;48.394;15.468;2022-09-12T02:24:32;14.70;99.90
29725;DHT22;16636;48.394;15.468;2022-09-12T02:29:45;14.70;99.90
29725;DHT22;16636;48.394;15.468;2022-09-12T02:40:09;14.70;99.90
29725;DHT22;16636;48.394;15.468;2022-09-12T02:42:38;14.70;99.90
29725;DHT22;16636;48.394;15.468;2022-09-12T02:45:04;14.70;99.90
29725;DHT22;16636;48.394;15.468;2022-09-12T02:50:03;14.70;99.90
29725;DHT22;16636;48.394;15.468;2022-09-12T02:52:33;14.70;99.90
29725;DHT22;16636;48.394;15.468;2022-09-12T02:55:01;14.70;99.90
29725;DHT22;16636;48.394;15.468;2022-09-12T02:57:29;14.70;99.90
29725;DHT22;16636;48.394;15.468;2022-09-12T02:59:58;14.70;99.90
29725;DHT22;16636;48.394;15.468;2022-09-12T03:02:31;14.70;99.90
29725;DHT22;16636;48.394;15.468;2022-09-12T03:05:28;14.70;99.90
29725;DHT22;16636;48.394;15.468;2022-09-12T03:14:04;14.70;99.90
29725;DHT22;16636;48.394;15.468;2022-09-12T03:25:05;14.60;99.90
29725;DHT22;16636;48.394;15.468;2022-09-12T03:27:39;14.50;99.90
29725;DHT22;16636;48.394;15.468;2022-09-12T03:30:06;14.50;99.90
29725;DHT22;16636;48.394;15.468;2022-09-12T03:32:47;14.60;99.90
29725;DHT22;16636;48.394;15.468;2022-09-12T03:35:15;14.50;99.90
29725;DHT22;16636;48.394;15.468;2022-09-12T03:37:41;14.50;99.90
29725;DHT22;16636;48.394;15.468;2022-09-12T03:40:08;14.50;99.90
29725;DHT22;16636;48.394;15.468;2022-09-12T03:42:38;14.40;99.90
29725;DHT22;16636;48.394;15.468;2022-09-12T03:45:05;14.40;99.90
29725;DHT22;16636;48.394;15.468;2022-09-12T03:47:31;14.40;99.90
29725;DHT22;16636;48.394;15.468;2022-09-12T03:49:57;14.50;99.90
29725;DHT22;16636;48.394;15.468;2022-09-12T03:52:23;14.50;99.90
29725;DHT22;16636;48.394;15.468;2022-09-12T03:54:49;14.40;99.90
29725;DHT22;16636;48.394;15.468;2022-09-12T03:57:15;14.40;99.90
29725;DHT22;16636;48.394;15.468;2022-09-12T03:59:40;14.30;99.90
29725;DHT22;16636;48.394;15.468;2022-09-12T04:02:06;14.40;99.90
29725;DHT22;16636;48.394;15.468;2022-09-12T04:04:34;14.30;99.90
29725;DHT22;16636;48.394;15.468;2022-09-12T04:07:00;14.30;99.90
29725;DHT22;16636;48.394;15.468;2022-09-12T04:09:28;14.30;99.90
29725;DHT22;16636;48.394;15.468;2022-09-12T04:11:54;14.20;99.90
29725;DHT22;16636;48.394;15.468;2022-09-12T04:14:20;14.20;99.90
29725;DHT22;16636;48.394;15.468;2022-09-12T04:16:46;14.10;99.90
29725;DHT22;16636;48.394;15.468;2022-09-12T04:19:12;14.20;99.90
29725;DHT22;16636;48.394;15.468;2022-09-12T04:21:38;14.20;99.90
29725;DHT22;16636;48.394;15.468;2022-09-12T04:24:04;14.20;99.90
29725;DHT22;16636;48.394;15.468;2022-09-12T04:26:30;14.20;99.90
29725;DHT22;16636;48.394;15.468;2022-09-12T04:28:56;14.20;99.90
29725;DHT22;16636;48.394;15.468;2022-09-12T04:31:23;14.20;99.90
29725;DHT22;16636;48.394;15.468;2022-09-12T04:33:54;14.20;99.90
29725;DHT22;16636;48.394;15.468;2022-09-12T04:36:21;14.20;99.90
29725;DHT22;16636;48.394;15.468;2022-09-12T04:38:47;14.20;99.90
29725;DHT22;16636;48.394;15.468;2022-09-12T04:41:22;14.20;99.90
29725;DHT22;16636;48.394;15.468;2022-09-12T04:43:52;14.20;99.90
29725;DHT22;16636;48.394;15.468;2022-09-12T04:46:18;14.20;99.90
29725;DHT22;16636;48.394;15.468;2022-09-12T04:48:45;14.20;99.90
29725;DHT22;16636;48.394;15.468;2022-09-12T04:51:14;14.10;99.90
29725;DHT22;16636;48.394;15.468;2022-09-12T04:53:41;14.20;99.90
29725;DHT22;16636;48.394;15.468;2022-09-12T04:56:09;14.10;99.90
29725;DHT22;16636;48.394;15.468;2022-09-12T04:58:37;14.20;99.90
29725;DHT22;16636;48.394;15.468;2022-09-12T05:01:11;14.20;99.90
29725;DHT22;16636;48.394;15.468;2022-09-12T05:03:37;14.10;99.90
29725;DHT22;16636;48.394;15.468;2022-09-12T05:06:06;14.10;99.90
29725;DHT22;16636;48.394;15.468;2022-09-12T05:08:33;14.00;99.90
29725;DHT22;16636;48.394;15.468;2022-09-12T05:11:27;14.00;99.90
29725;DHT22;16636;48.394;15.468;2022-09-12T05:13:54;14.10;99.90
29725;DHT22;16636;48.394;15.468;2022-09-12T05:16:21;14.10;99.90
29725;DHT22;16636;48.394;15.468;2022-09-12T05:18:47;14.10;99.90
29725;DHT22;16636;48.394;15.468;2022-09-12T05:21:17;14.10;99.90
29725;DHT22;16636;48.394;15.468;2022-09-12T05:27:08;14.10;99.90
29725;DHT22;16636;48.394;15.468;2022-09-12T05:29:34;14.20;99.90
29725;DHT22;16636;48.394;15.468;2022-09-12T05:32:01;14.20;99.90
29725;DHT22;16636;48.394;15.468;2022-09-12T05:34:27;14.10;99.90
29725;DHT22;16636;48.394;15.468;2022-09-12T05:36:53;14.10;99.90
29725;DHT22;16636;48.394;15.468;2022-09-12T05:39:18;14.10;99.90
29725;DHT22;16636;48.394;15.468;2022-09-12T05:41:45;14.10;99.90
29725;DHT22;16636;48.394;15.468;2022-09-12T05:44:12;14.10;99.90
29725;DHT22;16636;48.394;15.468;2022-09-12T05:46:43;14.10;99.90
29725;DHT22;16636;48.394;15.468;2022-09-12T05:49:11;14.10;99.90
29725;DHT22;16636;48.394;15.468;2022-09-12T05:51:43;14.20;99.90
29725;DHT22;16636;48.394;15.468;2022-09-12T05:54:13;14.30;99.90
29725;DHT22;16636;48.394;15.468;2022-09-12T05:56:41;14.30;99.90
29725;DHT22;16636;48.394;15.468;2022-09-12T05:59:20;14.30;99.90
29725;DHT22;16636;48.394;15.468;2022-09-12T06:01:46;14.40;99.90
29725;DHT22;16636;48.394;15.468;2022-09-12T06:04:13;14.40;99.90
29725;DHT22;16636;48.394;15.468;2022-09-12T06:06:41;14.40;99.90
29725;DHT22;16636;48.394;15.468;2022-09-12T06:09:10;14.40;99.90
29725;DHT22;16636;48.394;15.468;2022-09-12T06:11:37;14.50;99.90
29725;DHT22;16636;48.394;15.468;2022-09-12T06:14:06;14.50;99.90
29725;DHT22;16636;48.394;15.468;2022-09-12T06:16:33;14.60;99.90
29725;DHT22;16636;48.394;15.468;2022-09-12T06:19:03;14.60;99.90
29725;DHT22;16636;48.394;15.468;2022-09-12T06:21:29;14.60;99.90
29725;DHT22;16636;48.394;15.468;2022-09-12T06:23:56;14.60;99.90
29725;DHT22;16636;48.394;15.468;2022-09-12T06:26:23;14.60;99.90
29725;DHT22;16636;48.394;15.468;2022-09-12T06:28:51;14.70;99.90
29725;DHT22;16636;48.394;15.468;2022-09-12T06:31:20;14.70;99.90
29725;DHT22;16636;48.394;15.468;2022-09-12T06:33:48;14.70;99.90
29725;DHT22;16636;48.394;15.468;2022-09-12T06:36:20;14.80;99.90
29725;DHT22;16636;48.394;15.468;2022-09-12T06:38:48;14.80;99.90
29725;DHT22;16636;48.394;15.468;2022-09-12T06:41:18;14.70;99.90
29725;DHT22;16636;48.394;15.468;2022-09-12T06:43:44;14.70;99.90
29725;DHT22;16636;48.394;15.468;2022-09-12T06:46:10;14.70;99.90
29725;DHT22;16636;48.394;15.468;2022-09-12T06:48:37;14.80;99.90
29725;DHT22;16636;48.394;15.468;2022-09-12T06:51:06;14.80;99.90
29725;DHT22;16636;48.394;15.468;2022-09-12T06:53:33;14.80;99.90
29725;DHT22;16636;48.394;15.468;2022-09-12T06:56:14;14.80;99.90
29725;DHT22;16636;48.394;15.468;2022-09-12T06:58:41;14.90;99.90
29725;DHT22;16636;48.394;15.468;2022-09-12T07:01:12;14.90;99.90
29725;DHT22;16636;48.394;15.468;2022-09-12T07:03:40;15.00;99.90
29725;DHT22;16636;48.394;15.468;2022-09-12T07:06:09;15.00;99.90
29725;DHT22;16636;48.394;15.468;2022-09-12T07:08:36;15.00;99.90
29725;DHT22;16636;48.394;15.468;2022-09-12T07:11:17;15.10;99.90
29725;DHT22;16636;48.394;15.468;2022-09-12T07:13:47;15.10;99.90
29725;DHT22;16636;48.394;15.468;2022-09-12T07:16:13;15.20;99.90
29725;DHT22;16636;48.394;15.468;2022-09-12T07:18:39;15.20;99.90
29725;DHT22;16636;48.394;15.468;2022-09-12T07:21:08;15.20;99.90
29725;DHT22;16636;48.394;15.468;2022-09-12T07:23:34;15.30;99.90
29725;DHT22;16636;48.394;15.468;2022-09-12T07:26:01;15.30;99.90
29725;DHT22;16636;48.394;15.468;2022-09-12T07:32:34;15.40;99.90
29725;DHT22;16636;48.394;15.468;2022-09-12T07:35:00;15.40;99.90
29725;DHT22;16636;48.394;15.468;2022-09-12T07:37:30;15.50;99.90
29725;DHT22;16636;48.394;15.468;2022-09-12T07:39:57;15.60;99.90
29725;DHT22;16636;48.394;15.468;2022-09-12T07:42:24;15.70;99.90
29725;DHT22;16636;48.394;15.468;2022-09-12T07:44:50;15.70;99.90
29725;DHT22;16636;48.394;15.468;2022-09-12T07:47:17;15.80;99.90
29725;DHT22;16636;48.394;15.468;2022-09-12T07:49:43;15.80;99.90
29725;DHT22;16636;48.394;15.468;2022-09-12T07:52:09;15.80;99.90
29725;DHT22;16636;48.394;15.468;2022-09-12T07:54:35;15.80;99.90
29725;DHT22;16636;48.394;15.468;2022-09-12T07:57:01;15.90;99.90
29725;DHT22;16636;48.394;15.468;2022-09-12T07:59:26;15.90;99.90
29725;DHT22;16636;48.394;15.468;2022-09-12T08:01:52;15.90;99.90
29725;DHT22;16636;48.394;15.468;2022-09-12T08:04:18;16.00;99.90
29725;DHT22;16636;48.394;15.468;2022-09-12T08:06:45;16.00;99.90
29725;DHT22;16636;48.394;15.468;2022-09-12T08:09:11;16.10;99.90
29725;DHT22;16636;48.394;15.468;2022-09-12T08:11:45;16.10;99.90
29725;DHT22;16636;48.394;15.468;2022-09-12T08:14:10;16.10;99.90
29725;DHT22;16636;48.394;15.468;2022-09-12T08:16:37;16.10;99.90
29725;DHT22;16636;48.394;15.468;2022-09-12T08:19:03;16.10;99.90
29725;DHT22;16636;48.394;15.468;2022-09-12T08:21:30;16.20;99.90
29725;DHT22;16636;48.394;15.468;2022-09-12T08:23:59;16.20;99.90
29725;DHT22;16636;48.394;15.468;2022-09-12T08:26:25;16.30;99.90
29725;DHT22;16636;48.394;15.468;2022-09-12T08:28:52;16.30;99.90
29725;DHT22;16636;48.394;15.468;2022-09-12T08:31:19;16.30;99.90
29725;DHT22;16636;48.394;15.468;2022-09-12T08:33:46;16.30;99.90
29725;DHT22;16636;48.394;15.468;2022-09-12T08:36:18;16.30;99.90
29725;DHT22;16636;48.394;15.468;2022-09-12T08:38:48;16.40;99.90
29725;DHT22;16636;48.394;15.468;2022-09-12T08:46:39;16.70;99.90
29725;DHT22;16636;48.394;15.468;2022-09-12T08:49:12;16.70;99.90
29725;DHT22;16636;48.394;15.468;2022-09-12T08:51:40;16.80;99.90
29725;DHT22;16636;48.394;15.468;2022-09-12T08:54:27;16.80;99.90
29725;DHT22;16636;48.394;15.468;2022-09-12T08:56:58;16.80;99.90
29725;DHT22;16636;48.394;15.468;2022-09-12T08:59:34;16.80;99.90
29725;DHT22;16636;48.394;15.468;2022-09-12T09:02:19;16.90;99.90
29725;DHT22;16636;48.394;15.468;2022-09-12T09:07:46;17.00;99.90
29725;DHT22;16636;48.394;15.468;2022-09-12T09:10:58;17.00;99.90
29725;DHT22;16636;48.394;15.468;2022-09-12T09:16:40;17.40;99.90
29725;DHT22;16636;48.394;15.468;2022-09-12T09:19:17;17.70;99.90
29725;DHT22;16636;48.394;15.468;2022-09-12T09:22:03;17.90;99.90
29725;DHT22;16636;48.394;15.468;2022-09-12T09:24:47;18.10;99.90
29725;DHT22;16636;48.394;15.468;2022-09-12T09:29:53;18.10;99.90
29725;DHT22;16636;48.394;15.468;2022-09-12T09:32:33;18.10;99.90
29725;DHT22;16636;48.394;15.468;2022-09-12T09:35:11;18.00;99.90
29725;DHT22;16636;48.394;15.468;2022-09-12T09:37:42;18.00;99.90
29725;DHT22;16636;48.394;15.468;2022-09-12T09:45:23;18.20;99.90
29725;DHT22;16636;48.394;15.468;2022-09-12T09:50:19;18.80;99.90
29725;DHT22;16636;48.394;15.468;2022-09-12T09:52:46;19.00;99.90
29725;DHT22;16636;48.394;15.468;2022-09-12T09:55:22;19.20;99.90
29725;DHT22;16636;48.394;15.468;2022-09-12T09:57:50;19.10;99.90
29725;DHT22;16636;48.394;15.468;2022-09-12T10:05:53;19.20;99.90
29725;DHT22;16636;48.394;15.468;2022-09-12T10:08:29;19.60;99.90
29725;DHT22;16636;48.394;15.468;2022-09-12T10:11:15;19.60;99.90
29725;DHT22;16636;48.394;15.468;2022-09-12T10:13:53;19.60;99.90
29725;DHT22;16636;48.394;15.468;2022-09-12T10:16:24;19.30;99.90
29725;DHT22;16636;48.394;15.468;2022-09-12T10:19:00;19.40;99.90
29725;DHT22;16636;48.394;15.468;2022-09-12T10:21:38;19.80;99.90
29725;DHT22;16636;48.394;15.468;2022-09-12T10:24:27;20.10;99.90
29725;DHT22;16636;48.394;15.468;2022-09-12T10:27:19;20.50;99.90
29725;DHT22;16636;48.394;15.468;2022-09-12T10:29:47;20.60;99.90
29725;DHT22;16636;48.394;15.468;2022-09-12T10:32:25;20.30;99.90
29725;DHT22;16636;48.394;15.468;2022-09-12T10:34:57;20.10;99.90
29725;DHT22;16636;48.394;15.468;2022-09-12T10:40:37;19.90;99.90
29725;DHT22;16636;48.394;15.468;2022-09-12T10:43:17;19.90;99.90
29725;DHT22;16636;48.394;15.468;2022-09-12T10:45:43;19.90;99.90
29725;DHT22;16636;48.394;15.468;2022-09-12T10:48:32;20.30;99.90
29725;DHT22;16636;48.394;15.468;2022-09-12T10:50:59;20.70;99.90
29725;DHT22;16636;48.394;15.468;2022-09-12T10:53:31;21.00;99.90
29725;DHT22;16636;48.394;15.468;2022-09-12T10:56:18;21.30;99.90
29725;DHT22;16636;48.394;15.468;2022-09-12T11:12:52;20.60;99.90
29725;DHT22;16636;48.394;15.468;2022-09-12T11:18:14;20.70;99.90
29725;DHT22;16636;48.394;15.468;2022-09-12T11:29:49;21.00;99.90
29725;DHT22;16636;48.394;15.468;2022-09-12T11:32:31;21.00;99.90
29725;DHT22;16636;48.394;15.468;2022-09-12T11:35:09;21.30;99.90
29725;DHT22;16636;48.394;15.468;2022-09-12T11:42:50;22.10;99.90
29725;DHT22;16636;48.394;15.468;2022-09-12T11:48:57;22.40;99.90
29725;DHT22;16636;48.394;15.468;2022-09-12T11:54:40;21.60;99.90
29725;DHT22;16636;48.394;15.468;2022-09-12T12:00:02;21.70;99.90
29725;DHT22;16636;48.394;15.468;2022-09-12T12:05:48;21.90;99.90
29725;DHT22;16636;48.394;15.468;2022-09-12T12:08:17;22.20;99.90
29725;DHT22;16636;48.394;15.468;2022-09-12T12:11:11;22.00;99.90
29725;DHT22;16636;48.394;15.468;2022-09-12T12:13:59;21.90;99.90
29725;DHT22;16636;48.394;15.468;2022-09-12T12:16:33;22.30;99.90
29725;DHT22;16636;48.394;15.468;2022-09-12T12:19:07;22.60;99.90
29725;DHT22;16636;48.394;15.468;2022-09-12T12:21:39;23.00;99.90
29725;DHT22;16636;48.394;15.468;2022-09-12T12:26:42;22.90;99.90
29725;DHT22;16636;48.394;15.468;2022-09-12T12:34:33;22.00;99.90
29725;DHT22;16636;48.394;15.468;2022-09-12T12:50:22;23.50;99.90
29725;DHT22;16636;48.394;15.468;2022-09-12T12:53:00;23.60;99.90
29725;DHT22;16636;48.394;15.468;2022-09-12T12:55:46;23.60;99.90
29725;DHT22;16636;48.394;15.468;2022-09-12T12:58:34;23.70;99.90
29725;DHT22;16636;48.394;15.468;2022-09-12T13:03:39;23.50;99.90
29725;DHT22;16636;48.394;15.468;2022-09-12T13:06:08;23.30;99.90
29725;DHT22;16636;48.394;15.468;2022-09-12T13:12:45;23.50;99.90
29725;DHT22;16636;48.394;15.468;2022-09-12T13:18:13;23.70;99.90
29725;DHT22;16636;48.394;15.468;2022-09-12T13:20:50;23.70;99.90
29725;DHT22;16636;48.394;15.468;2022-09-12T13:23:25;23.80;99.90
29725;DHT22;16636;48.394;15.468;2022-09-12T13:29:47;23.90;99.90
29725;DHT22;16636;48.394;15.468;2022-09-12T13:32:14;24.10;99.90
29725;DHT22;16636;48.394;15.468;2022-09-12T13:34:55;23.90;99.90
29725;DHT22;16636;48.394;15.468;2022-09-12T13:42:37;24.60;99.90
29725;DHT22;16636;48.394;15.468;2022-09-12T13:47:54;24.60;99.90
29725;DHT22;16636;48.394;15.468;2022-09-12T13:50:29;24.70;99.90
29725;DHT22;16636;48.394;15.468;2022-09-12T13:52:59;24.80;99.90
29725;DHT22;16636;48.394;15.468;2022-09-12T13:55:33;24.70;99.90
29725;DHT22;16636;48.394;15.468;2022-09-12T13:58:02;24.40;99.90
29725;DHT22;16636;48.394;15.468;2022-09-12T14:00:30;24.50;99.90
29725;DHT22;16636;48.394;15.468;2022-09-12T14:02:58;24.40;99.90
29725;DHT22;16636;48.394;15.468;2022-09-12T14:05:48;24.20;99.90
29725;DHT22;16636;48.394;15.468;2022-09-12T14:08:18;24.50;99.90
29725;DHT22;16636;48.394;15.468;2022-09-12T14:10:46;24.60;99.90
29725;DHT22;16636;48.394;15.468;2022-09-12T14:13:19;24.80;99.90
29725;DHT22;16636;48.394;15.468;2022-09-12T14:15:47;24.90;99.90
29725;DHT22;16636;48.394;15.468;2022-09-12T14:18:40;24.90;99.80
29725;DHT22;16636;48.394;15.468;2022-09-12T14:21:10;24.90;99.90
29725;DHT22;16636;48.394;15.468;2022-09-12T14:23:42;25.00;99.90
29725;DHT22;16636;48.394;15.468;2022-09-12T14:26:11;25.00;99.90
29725;DHT22;16636;48.394;15.468;2022-09-12T14:28:42;25.10;99.90
29725;DHT22;16636;48.394;15.468;2022-09-12T14:31:22;25.10;99.90
29725;DHT22;16636;48.394;15.468;2022-09-12T14:36:39;25.40;99.90
29725;DHT22;16636;48.394;15.468;2022-09-12T14:39:25;25.50;99.40
29725;DHT22;16636;48.394;15.468;2022-09-12T14:42:19;25.40;98.80
29725;DHT22;16636;48.394;15.468;2022-09-12T14:45:03;25.40;97.60
29725;DHT22;16636;48.394;15.468;2022-09-12T14:47:40;25.30;98.60
29725;DHT22;16636;48.394;15.468;2022-09-12T14:50:15;25.30;99.90
29725;DHT22;16636;48.394;15.468;2022-09-12T14:52:42;25.30;99.80
29725;DHT22;16636;48.394;15.468;2022-09-12T14:57:43;24.70;99.90
29725;DHT22;16636;48.394;15.468;2022-09-12T15:02:36;24.00;99.90
29725;DHT22;16636;48.394;15.468;2022-09-12T15:07:59;23.90;99.90
29725;DHT22;16636;48.394;15.468;2022-09-12T15:15:37;23.30;99.90
29725;DHT22;16636;48.394;15.468;2022-09-12T15:18:04;23.10;99.90
29725;DHT22;16636;48.394;15.468;2022-09-12T15:20:31;22.90;99.90
29725;DHT22;16636;48.394;15.468;2022-09-12T15:22:57;22.70;99.90
29725;DHT22;16636;48.394;15.468;2022-09-12T15:25:23;22.50;99.90
29725;DHT22;16636;48.394;15.468;2022-09-12T15:27:50;22.40;99.90
29725;DHT22;16636;48.394;15.468;2022-09-12T15:30:17;22.30;99.90
29725;DHT22;16636;48.394;15.468;2022-09-12T15:32:43;22.30;99.90
29725;DHT22;16636;48.394;15.468;2022-09-12T15:35:14;22.40;99.90
29725;DHT22;16636;48.394;15.468;2022-09-12T15:37:40;22.40;99.90
29725;DHT22;16636;48.394;15.468;2022-09-12T15:40:08;22.30;99.90
29725;DHT22;16636;48.394;15.468;2022-09-12T15:42:34;22.30;99.90
29725;DHT22;16636;48.394;15.468;2022-09-12T15:45:00;22.20;99.90
29725;DHT22;16636;48.394;15.468;2022-09-12T15:47:28;22.20;99.90
29725;DHT22;16636;48.394;15.468;2022-09-12T15:49:54;22.20;99.90
29725;DHT22;16636;48.394;15.468;2022-09-12T15:52:20;22.20;99.90
29725;DHT22;16636;48.394;15.468;2022-09-12T15:54:46;22.20;99.90
29725;DHT22;16636;48.394;15.468;2022-09-12T15:57:12;22.20;99.90
29725;DHT22;16636;48.394;15.468;2022-09-12T15:59:38;22.10;99.90
29725;DHT22;16636;48.394;15.468;2022-09-12T16:02:04;22.10;99.90
29725;DHT22;16636;48.394;15.468;2022-09-12T16:04:30;22.00;99.90
29725;DHT22;16636;48.394;15.468;2022-09-12T16:06:56;21.90;99.90
29725;DHT22;16636;48.394;15.468;2022-09-12T16:09:23;21.80;99.90
29725;DHT22;16636;48.394;15.468;2022-09-12T16:11:49;21.70;99.90
29725;DHT22;16636;48.394;15.468;2022-09-12T16:14:18;21.60;99.90
29725;DHT22;16636;48.394;15.468;2022-09-12T16:16:51;21.60;99.90
29725;DHT22;16636;48.394;15.468;2022-09-12T16:19:18;21.60;99.90
29725;DHT22;16636;48.394;15.468;2022-09-12T16:21:44;21.50;99.90
29725;DHT22;16636;48.394;15.468;2022-09-12T16:24:11;21.50;99.90
29725;DHT22;16636;48.394;15.468;2022-09-12T16:26:37;21.40;99.90
29725;DHT22;16636;48.394;15.468;2022-09-12T16:29:03;21.30;99.90
29725;DHT22;16636;48.394;15.468;2022-09-12T16:31:29;21.20;99.90
29725;DHT22;16636;48.394;15.468;2022-09-12T16:33:55;21.20;99.90
29725;DHT22;16636;48.394;15.468;2022-09-12T16:36:22;21.10;99.90
29725;DHT22;16636;48.394;15.468;2022-09-12T16:38:50;21.10;99.90
29725;DHT22;16636;48.394;15.468;2022-09-12T16:41:17;21.00;99.90
29725;DHT22;16636;48.394;15.468;2022-09-12T16:43:44;21.00;99.90
29725;DHT22;16636;48.394;15.468;2022-09-12T16:46:18;20.90;99.90
29725;DHT22;16636;48.394;15.468;2022-09-12T16:48:49;20.90;99.90
29725;DHT22;16636;48.394;15.468;2022-09-12T16:51:17;20.80;99.90
29725;DHT22;16636;48.394;15.468;2022-09-12T16:53:45;20.80;99.90
29725;DHT22;16636;48.394;15.468;2022-09-12T16:56:11;20.70;99.90
29725;DHT22;16636;48.394;15.468;2022-09-12T16:58:39;20.70;99.90
29725;DHT22;16636;48.394;15.468;2022-09-12T17:01:13;20.60;99.90
29725;DHT22;16636;48.394;15.468;2022-09-12T17:03:40;20.60;99.90
29725;DHT22;16636;48.394;15.468;2022-09-12T17:06:12;20.50;99.90
29725;DHT22;16636;48.394;15.468;2022-09-12T17:08:44;20.50;99.90
29725;DHT22;16636;48.394;15.468;2022-09-12T17:11:21;20.40;99.90
29725;DHT22;16636;48.394;15.468;2022-09-12T17:13:53;20.40;99.90
29725;DHT22;16636;48.394;15.468;2022-09-12T17:16:20;20.30;99.90
29725;DHT22;16636;48.394;15.468;2022-09-12T17:18:47;20.30;99.90
29725;DHT22;16636;48.394;15.468;2022-09-12T17:21:13;20.20;99.90
29725;DHT22;16636;48.394;15.468;2022-09-12T17:23:40;20.20;99.90
29725;DHT22;16636;48.394;15.468;2022-09-12T17:26:07;20.10;99.90
29725;DHT22;16636;48.394;15.468;2022-09-12T17:28:35;20.10;99.90
29725;DHT22;16636;48.394;15.468;2022-09-12T17:31:04;20.00;99.90
29725;DHT22;16636;48.394;15.468;2022-09-12T17:33:30;20.00;99.90
29725;DHT22;16636;48.394;15.468;2022-09-12T17:36:01;19.90;99.90
29725;DHT22;16636;48.394;15.468;2022-09-12T17:38:33;19.90;99.90
29725;DHT22;16636;48.394;15.468;2022-09-12T17:43:36;19.60;99.90
29725;DHT22;16636;48.394;15.468;2022-09-12T17:46:03;19.50;99.90
29725;DHT22;16636;48.394;15.468;2022-09-12T17:48:29;19.50;99.90
29725;DHT22;16636;48.394;15.468;2022-09-12T17:50:55;19.50;99.90
29725;DHT22;16636;48.394;15.468;2022-09-12T17:53:22;19.50;99.90
29725;DHT22;16636;48.394;15.468;2022-09-12T17:55:48;19.50;99.90
29725;DHT22;16636;48.394;15.468;2022-09-12T17:58:14;19.50;99.90
29725;DHT22;16636;48.394;15.468;2022-09-12T18:00:40;19.50;99.90
29725;DHT22;16636;48.394;15.468;2022-09-12T18:03:24;19.40;99.90
29725;DHT22;16636;48.394;15.468;2022-09-12T18:05:55;19.40;99.90
29725;DHT22;16636;48.394;15.468;2022-09-12T18:08:22;19.30;99.90
29725;DHT22;16636;48.394;15.468;2022-09-12T18:10:50;19.30;99.90
29725;DHT22;16636;48.394;15.468;2022-09-12T18:13:16;19.30;99.90
29725;DHT22;16636;48.394;15.468;2022-09-12T18:15:42;19.30;99.90
29725;DHT22;16636;48.394;15.468;2022-09-12T18:18:08;19.20;99.90
29725;DHT22;16636;48.394;15.468;2022-09-12T18:20:34;19.20;99.90
29725;DHT22;16636;48.394;15.468;2022-09-12T18:23:00;19.10;99.90
29725;DHT22;16636;48.394;15.468;2022-09-12T18:25:29;19.10;99.90
29725;DHT22;16636;48.394;15.468;2022-09-12T18:27:55;19.10;99.90
29725;DHT22;16636;48.394;15.468;2022-09-12T18:30:21;19.00;99.90
29725;DHT22;16636;48.394;15.468;2022-09-12T18:32:48;19.00;99.90
29725;DHT22;16636;48.394;15.468;2022-09-12T18:35:14;19.00;99.90
29725;DHT22;16636;48.394;15.468;2022-09-12T18:37:40;18.90;99.90
29725;DHT22;16636;48.394;15.468;2022-09-12T18:40:07;18.90;99.90
29725;DHT22;16636;48.394;15.468;2022-09-12T18:42:40;18.90;99.90
29725;DHT22;16636;48.394;15.468;2022-09-12T18:45:06;18.80;99.90
29725;DHT22;16636;48.394;15.468;2022-09-12T18:47:34;18.80;99.90
29725;DHT22;16636;48.394;15.468;2022-09-12T18:50:00;18.80;99.90
29725;DHT22;16636;48.394;15.468;2022-09-12T18:52:26;18.70;99.90
29725;DHT22;16636;48.394;15.468;2022-09-12T18:54:52;18.70;99.90
29725;DHT22;16636;48.394;15.468;2022-09-12T18:57:18;18.60;99.90
29725;DHT22;16636;48.394;15.468;2022-09-12T18:59:44;18.60;99.90